sensor_id;sensor_type;location;lat;lon;timestamp;P1;durP1;ratioP1;P2;durP2;ratioP2
23555;SDS011;11956;53.184;8.578;2023-07-31T00:00:58;8.00;;;2.25;;
23555;SDS011;11956;53.184;8.578;2023-07-31T00:03:59;7.85;;;2.60;;
23555;SDS011;11956;53.184;8.578;2023-07-31T00:07:00;10.95;;;3.08;;
23555;SDS011;11956;53.184;8.578;2023-07-31T00:10:04;10.35;;;2.72;;
23555;SDS011;11956;53.184;8.578;2023-07-31T00:13:06;7.32;;;2.65;;
23555;SDS011;11956;53.184;8.578;2023-07-31T00:16:07;11.20;;;3.30;;
23555;SDS011;11956;53.184;8.578;2023-07-31T00:19:08;10.60;;;2.88;;
23555;SDS011;11956;53.184;8.578;2023-07-31T00:22:09;9.07;;;2.67;;
23555;SDS011;11956;53.184;8.578;2023-07-31T00:25:10;6.30;;;2.70;;
23555;SDS011;11956;53.184;8.578;2023-07-31T00:28:11;5.90;;;2.80;;
23555;SDS011;11956;53.184;8.578;2023-07-31T00:31:12;6.03;;;3.28;;
23555;SDS011;11956;53.184;8.578;2023-07-31T00:34:13;6.72;;;2.88;;
23555;SDS011;11956;53.184;8.578;2023-07-31T00:37:14;6.13;;;2.90;;
23555;SDS011;11956;53.184;8.578;2023-07-31T00:40:15;6.60;;;2.63;;
23555;SDS011;11956;53.184;8.578;2023-07-31T00:43:16;8.20;;;2.85;;
23555;SDS011;11956;53.184;8.578;2023-07-31T00:46:17;8.13;;;2.47;;
23555;SDS011;11956;53.184;8.578;2023-07-31T00:49:18;4.93;;;2.60;;
23555;SDS011;11956;53.184;8.578;2023-07-31T00:52:20;5.40;;;2.22;;
23555;SDS011;11956;53.184;8.578;2023-07-31T00:55:22;5.75;;;2.30;;
23555;SDS011;11956;53.184;8.578;2023-07-31T00:58:23;6.50;;;2.53;;
23555;SDS011;11956;53.184;8.578;2023-07-31T01:01:26;4.57;;;2.40;;
23555;SDS011;11956;53.184;8.578;2023-07-31T01:04:27;5.05;;;2.40;;
23555;SDS011;11956;53.184;8.578;2023-07-31T01:10:49;4.93;;;2.08;;
23555;SDS011;11956;53.184;8.578;2023-07-31T01:14:04;6.25;;;2.63;;
23555;SDS011;11956;53.184;8.578;2023-07-31T01:17:06;4.20;;;2.03;;
23555;SDS011;11956;53.184;8.578;2023-07-31T01:20:11;4.75;;;2.22;;
23555;SDS011;11956;53.184;8.578;2023-07-31T01:26:41;4.43;;;2.00;;
23555;SDS011;11956;53.184;8.578;2023-07-31T01:29:49;3.72;;;1.95;;
23555;SDS011;11956;53.184;8.578;2023-07-31T01:33:11;4.20;;;1.70;;
23555;SDS011;11956;53.184;8.578;2023-07-31T01:36:12;4.78;;;1.75;;
23555;SDS011;11956;53.184;8.578;2023-07-31T01:39:13;3.42;;;1.80;;
23555;SDS011;11956;53.184;8.578;2023-07-31T01:42:15;3.20;;;1.80;;
23555;SDS011;11956;53.184;8.578;2023-07-31T01:45:17;5.25;;;2.28;;
23555;SDS011;11956;53.184;8.578;2023-07-31T01:51:22;4.25;;;2.10;;
23555;SDS011;11956;53.184;8.578;2023-07-31T01:54:23;3.15;;;1.50;;
23555;SDS011;11956;53.184;8.578;2023-07-31T01:57:24;4.63;;;2.33;;
23555;SDS011;11956;53.184;8.578;2023-07-31T02:00:25;3.90;;;2.00;;
23555;SDS011;11956;53.184;8.578;2023-07-31T02:03:26;4.00;;;2.42;;
23555;SDS011;11956;53.184;8.578;2023-07-31T02:06:28;5.78;;;2.15;;
23555;SDS011;11956;53.184;8.578;2023-07-31T02:09:29;4.88;;;2.20;;
23555;SDS011;11956;53.184;8.578;2023-07-31T02:12:30;4.05;;;2.15;;
23555;SDS011;11956;53.184;8.578;2023-07-31T02:15:32;4.82;;;2.72;;
23555;SDS011;11956;53.184;8.578;2023-07-31T02:18:33;8.02;;;3.22;;
23555;SDS011;11956;53.184;8.578;2023-07-31T02:21:35;5.20;;;2.65;;
23555;SDS011;11956;53.184;8.578;2023-07-31T02:24:36;3.47;;;2.50;;
23555;SDS011;11956;53.184;8.578;2023-07-31T02:27:38;4.55;;;2.38;;
23555;SDS011;11956;53.184;8.578;2023-07-31T02:30:39;2.88;;;2.10;;
23555;SDS011;11956;53.184;8.578;2023-07-31T02:33:40;4.50;;;2.60;;
23555;SDS011;11956;53.184;8.578;2023-07-31T02:36:41;3.95;;;2.53;;
23555;SDS011;11956;53.184;8.578;2023-07-31T02:39:42;5.03;;;2.72;;
23555;SDS011;11956;53.184;8.578;2023-07-31T02:42:43;5.63;;;2.78;;
23555;SDS011;11956;53.184;8.578;2023-07-31T02:45:44;4.85;;;3.10;;
23555;SDS011;11956;53.184;8.578;2023-07-31T02:48:45;5.80;;;3.30;;
23555;SDS011;11956;53.184;8.578;2023-07-31T02:51:47;4.35;;;3.10;;
23555;SDS011;11956;53.184;8.578;2023-07-31T02:54:48;6.47;;;3.60;;
23555;SDS011;11956;53.184;8.578;2023-07-31T02:57:49;4.90;;;3.38;;
23555;SDS011;11956;53.184;8.578;2023-07-31T03:00:50;7.25;;;3.95;;
23555;SDS011;11956;53.184;8.578;2023-07-31T03:03:51;5.82;;;4.05;;
23555;SDS011;11956;53.184;8.578;2023-07-31T03:06:52;6.18;;;3.97;;
23555;SDS011;11956;53.184;8.578;2023-07-31T03:09:53;10.38;;;4.38;;
23555;SDS011;11956;53.184;8.578;2023-07-31T03:12:54;5.88;;;4.20;;
23555;SDS011;11956;53.184;8.578;2023-07-31T03:15:55;7.38;;;5.25;;
23555;SDS011;11956;53.184;8.578;2023-07-31T03:18:56;6.82;;;5.57;;
23555;SDS011;11956;53.184;8.578;2023-07-31T03:21:58;7.00;;;4.63;;
23555;SDS011;11956;53.184;8.578;2023-07-31T03:24:59;7.60;;;5.32;;
23555;SDS011;11956;53.184;8.578;2023-07-31T03:28:04;9.10;;;5.97;;
23555;SDS011;11956;53.184;8.578;2023-07-31T03:31:05;5.63;;;4.43;;
23555;SDS011;11956;53.184;8.578;2023-07-31T03:34:06;8.68;;;5.45;;
23555;SDS011;11956;53.184;8.578;2023-07-31T03:37:07;7.07;;;5.45;;
23555;SDS011;11956;53.184;8.578;2023-07-31T03:40:09;8.43;;;6.20;;
23555;SDS011;11956;53.184;8.578;2023-07-31T03:43:11;7.50;;;6.20;;
23555;SDS011;11956;53.184;8.578;2023-07-31T03:46:13;7.70;;;6.10;;
23555;SDS011;11956;53.184;8.578;2023-07-31T03:49:14;8.13;;;6.38;;
23555;SDS011;11956;53.184;8.578;2023-07-31T03:52:15;7.63;;;5.78;;
23555;SDS011;11956;53.184;8.578;2023-07-31T03:55:16;7.57;;;6.40;;
23555;SDS011;11956;53.184;8.578;2023-07-31T03:58:18;8.27;;;6.40;;
23555;SDS011;11956;53.184;8.578;2023-07-31T04:01:19;9.10;;;6.45;;
23555;SDS011;11956;53.184;8.578;2023-07-31T04:04:20;7.45;;;6.63;;
23555;SDS011;11956;53.184;8.578;2023-07-31T04:07:21;8.07;;;6.40;;
23555;SDS011;11956;53.184;8.578;2023-07-31T04:10:22;8.32;;;5.45;;
23555;SDS011;11956;53.184;8.578;2023-07-31T04:13:23;8.13;;;6.30;;
23555;SDS011;11956;53.184;8.578;2023-07-31T04:16:24;11.13;;;6.30;;
23555;SDS011;11956;53.184;8.578;2023-07-31T04:19:25;6.18;;;4.75;;
23555;SDS011;11956;53.184;8.578;2023-07-31T04:22:26;6.00;;;5.28;;
23555;SDS011;11956;53.184;8.578;2023-07-31T04:25:27;8.52;;;6.30;;
23555;SDS011;11956;53.184;8.578;2023-07-31T04:28:28;5.97;;;5.35;;
23555;SDS011;11956;53.184;8.578;2023-07-31T04:31:31;8.63;;;6.13;;
23555;SDS011;11956;53.184;8.578;2023-07-31T04:34:33;6.78;;;5.72;;
23555;SDS011;11956;53.184;8.578;2023-07-31T04:37:34;6.05;;;5.47;;
23555;SDS011;11956;53.184;8.578;2023-07-31T04:40:35;5.97;;;5.38;;
23555;SDS011;11956;53.184;8.578;2023-07-31T04:43:36;7.10;;;5.78;;
23555;SDS011;11956;53.184;8.578;2023-07-31T04:46:39;5.70;;;5.18;;
23555;SDS011;11956;53.184;8.578;2023-07-31T04:49:40;7.25;;;5.22;;
23555;SDS011;11956;53.184;8.578;2023-07-31T04:52:42;5.53;;;4.40;;
23555;SDS011;11956;53.184;8.578;2023-07-31T04:55:43;3.85;;;3.45;;
23555;SDS011;11956;53.184;8.578;2023-07-31T04:58:44;4.38;;;3.40;;
23555;SDS011;11956;53.184;8.578;2023-07-31T05:01:45;3.75;;;3.33;;
23555;SDS011;11956;53.184;8.578;2023-07-31T05:04:46;3.65;;;3.35;;
23555;SDS011;11956;53.184;8.578;2023-07-31T05:07:47;4.35;;;3.38;;
23555;SDS011;11956;53.184;8.578;2023-07-31T05:10:48;4.40;;;4.10;;
23555;SDS011;11956;53.184;8.578;2023-07-31T05:13:49;5.68;;;4.85;;
23555;SDS011;11956;53.184;8.578;2023-07-31T05:16:50;6.45;;;5.25;;
23555;SDS011;11956;53.184;8.578;2023-07-31T05:19:51;3.55;;;3.30;;
23555;SDS011;11956;53.184;8.578;2023-07-31T05:22:52;3.75;;;3.42;;
23555;SDS011;11956;53.184;8.578;2023-07-31T05:25:53;3.25;;;2.95;;
23555;SDS011;11956;53.184;8.578;2023-07-31T05:28:54;3.75;;;3.42;;
23555;SDS011;11956;53.184;8.578;2023-07-31T05:31:55;5.20;;;3.60;;
23555;SDS011;11956;53.184;8.578;2023-07-31T05:34:55;3.25;;;2.95;;
23555;SDS011;11956;53.184;8.578;2023-07-31T05:37:56;4.10;;;3.15;;
23555;SDS011;11956;53.184;8.578;2023-07-31T05:40:57;2.80;;;1.80;;
23555;SDS011;11956;53.184;8.578;2023-07-31T05:43:58;2.35;;;1.85;;
23555;SDS011;11956;53.184;8.578;2023-07-31T05:46:59;1.90;;;1.73;;
23555;SDS011;11956;53.184;8.578;2023-07-31T05:50:00;2.95;;;1.73;;
23555;SDS011;11956;53.184;8.578;2023-07-31T05:53:01;2.80;;;1.70;;
23555;SDS011;11956;53.184;8.578;2023-07-31T05:56:02;2.00;;;1.75;;
23555;SDS011;11956;53.184;8.578;2023-07-31T05:59:05;2.25;;;1.92;;
23555;SDS011;11956;53.184;8.578;2023-07-31T06:02:05;4.03;;;2.20;;
23555;SDS011;11956;53.184;8.578;2023-07-31T06:05:07;3.53;;;2.78;;
23555;SDS011;11956;53.184;8.578;2023-07-31T06:08:08;2.15;;;2.00;;
23555;SDS011;11956;53.184;8.578;2023-07-31T06:11:09;3.03;;;2.55;;
23555;SDS011;11956;53.184;8.578;2023-07-31T06:14:10;3.92;;;3.17;;
23555;SDS011;11956;53.184;8.578;2023-07-31T06:17:11;4.28;;;3.38;;
23555;SDS011;11956;53.184;8.578;2023-07-31T06:20:12;4.85;;;3.80;;
23555;SDS011;11956;53.184;8.578;2023-07-31T06:23:13;4.78;;;3.45;;
23555;SDS011;11956;53.184;8.578;2023-07-31T06:26:14;4.95;;;4.10;;
23555;SDS011;11956;53.184;8.578;2023-07-31T06:29:15;6.07;;;4.20;;
23555;SDS011;11956;53.184;8.578;2023-07-31T06:32:16;4.03;;;3.63;;
23555;SDS011;11956;53.184;8.578;2023-07-31T06:35:17;4.63;;;4.15;;
23555;SDS011;11956;53.184;8.578;2023-07-31T06:38:24;4.68;;;4.20;;
23555;SDS011;11956;53.184;8.578;2023-07-31T06:41:26;4.95;;;3.40;;
23555;SDS011;11956;53.184;8.578;2023-07-31T06:44:28;2.90;;;2.60;;
23555;SDS011;11956;53.184;8.578;2023-07-31T06:47:29;2.85;;;2.65;;
23555;SDS011;11956;53.184;8.578;2023-07-31T06:50:30;3.30;;;3.00;;
23555;SDS011;11956;53.184;8.578;2023-07-31T06:53:31;5.82;;;3.20;;
23555;SDS011;11956;53.184;8.578;2023-07-31T06:56:32;4.05;;;3.67;;
23555;SDS011;11956;53.184;8.578;2023-07-31T06:59:33;2.40;;;2.20;;
23555;SDS011;11956;53.184;8.578;2023-07-31T07:02:34;3.00;;;2.70;;
23555;SDS011;11956;53.184;8.578;2023-07-31T07:05:35;2.97;;;2.67;;
23555;SDS011;11956;53.184;8.578;2023-07-31T07:08:36;3.08;;;2.83;;
23555;SDS011;11956;53.184;8.578;2023-07-31T07:11:37;2.20;;;2.00;;
23555;SDS011;11956;53.184;8.578;2023-07-31T07:14:38;3.50;;;3.20;;
23555;SDS011;11956;53.184;8.578;2023-07-31T07:17:39;2.80;;;2.60;;
23555;SDS011;11956;53.184;8.578;2023-07-31T07:20:40;2.60;;;2.40;;
23555;SDS011;11956;53.184;8.578;2023-07-31T07:23:50;3.33;;;3.00;;
23555;SDS011;11956;53.184;8.578;2023-07-31T07:26:51;3.65;;;2.60;;
23555;SDS011;11956;53.184;8.578;2023-07-31T07:29:52;7.85;;;3.47;;
23555;SDS011;11956;53.184;8.578;2023-07-31T07:32:53;5.75;;;3.08;;
23555;SDS011;11956;53.184;8.578;2023-07-31T07:35:54;3.28;;;2.97;;
23555;SDS011;11956;53.184;8.578;2023-07-31T07:38:55;3.72;;;2.60;;
23555;SDS011;11956;53.184;8.578;2023-07-31T07:41:57;3.38;;;2.97;;
23555;SDS011;11956;53.184;8.578;2023-07-31T07:44:58;3.45;;;3.00;;
23555;SDS011;11956;53.184;8.578;2023-07-31T07:47:59;2.63;;;2.35;;
23555;SDS011;11956;53.184;8.578;2023-07-31T07:51:00;14.02;;;5.68;;
23555;SDS011;11956;53.184;8.578;2023-07-31T07:54:01;9.68;;;5.07;;
23555;SDS011;11956;53.184;8.578;2023-07-31T07:57:02;12.32;;;7.10;;
23555;SDS011;11956;53.184;8.578;2023-07-31T08:00:04;14.98;;;7.45;;
23555;SDS011;11956;53.184;8.578;2023-07-31T08:03:14;16.30;;;9.15;;
23555;SDS011;11956;53.184;8.578;2023-07-31T08:06:15;20.98;;;11.48;;
23555;SDS011;11956;53.184;8.578;2023-07-31T08:09:16;22.55;;;11.57;;
23555;SDS011;11956;53.184;8.578;2023-07-31T08:12:16;27.80;;;13.05;;
23555;SDS011;11956;53.184;8.578;2023-07-31T08:15:18;37.28;;;17.98;;
23555;SDS011;11956;53.184;8.578;2023-07-31T08:18:18;28.42;;;13.40;;
23555;SDS011;11956;53.184;8.578;2023-07-31T08:21:20;21.98;;;12.00;;
23555;SDS011;11956;53.184;8.578;2023-07-31T08:24:22;41.17;;;16.67;;
23555;SDS011;11956;53.184;8.578;2023-07-31T08:27:23;32.85;;;15.70;;
23555;SDS011;11956;53.184;8.578;2023-07-31T08:30:24;32.30;;;15.90;;
23555;SDS011;11956;53.184;8.578;2023-07-31T08:33:25;31.45;;;15.63;;
23555;SDS011;11956;53.184;8.578;2023-07-31T08:36:26;20.77;;;11.38;;
23555;SDS011;11956;53.184;8.578;2023-07-31T08:39:27;32.20;;;13.70;;
23555;SDS011;11956;53.184;8.578;2023-07-31T08:42:28;24.33;;;11.02;;
23555;SDS011;11956;53.184;8.578;2023-07-31T08:45:29;24.85;;;10.75;;
23555;SDS011;11956;53.184;8.578;2023-07-31T08:48:31;23.25;;;11.40;;
23555;SDS011;11956;53.184;8.578;2023-07-31T08:51:34;27.33;;;12.07;;
23555;SDS011;11956;53.184;8.578;2023-07-31T08:54:35;18.75;;;10.50;;
23555;SDS011;11956;53.184;8.578;2023-07-31T08:57:37;27.38;;;12.77;;
23555;SDS011;11956;53.184;8.578;2023-07-31T09:00:39;23.50;;;12.13;;
23555;SDS011;11956;53.184;8.578;2023-07-31T09:03:41;29.23;;;13.13;;
23555;SDS011;11956;53.184;8.578;2023-07-31T09:06:43;20.17;;;10.85;;
23555;SDS011;11956;53.184;8.578;2023-07-31T09:09:45;21.90;;;10.48;;
23555;SDS011;11956;53.184;8.578;2023-07-31T09:12:46;20.55;;;11.00;;
23555;SDS011;11956;53.184;8.578;2023-07-31T09:15:49;25.17;;;10.37;;
23555;SDS011;11956;53.184;8.578;2023-07-31T09:18:56;21.05;;;10.70;;
23555;SDS011;11956;53.184;8.578;2023-07-31T09:21:58;16.10;;;8.90;;
23555;SDS011;11956;53.184;8.578;2023-07-31T09:31:41;21.35;;;10.55;;
23555;SDS011;11956;53.184;8.578;2023-07-31T09:34:43;24.05;;;11.40;;
23555;SDS011;11956;53.184;8.578;2023-07-31T09:37:47;17.33;;;8.55;;
23555;SDS011;11956;53.184;8.578;2023-07-31T09:42:04;18.55;;;8.75;;
23555;SDS011;11956;53.184;8.578;2023-07-31T09:45:07;16.42;;;9.07;;
23555;SDS011;11956;53.184;8.578;2023-07-31T09:48:12;14.52;;;7.65;;
23555;SDS011;11956;53.184;8.578;2023-07-31T09:51:17;18.02;;;8.07;;
23555;SDS011;11956;53.184;8.578;2023-07-31T09:54:27;12.52;;;6.82;;
23555;SDS011;11956;53.184;8.578;2023-07-31T09:57:28;9.57;;;5.03;;
23555;SDS011;11956;53.184;8.578;2023-07-31T10:00:30;9.70;;;4.93;;
23555;SDS011;11956;53.184;8.578;2023-07-31T10:03:32;9.38;;;5.35;;
23555;SDS011;11956;53.184;8.578;2023-07-31T10:06:34;10.93;;;4.68;;
23555;SDS011;11956;53.184;8.578;2023-07-31T10:09:36;6.77;;;4.67;;
23555;SDS011;11956;53.184;8.578;2023-07-31T10:12:37;8.45;;;4.97;;
23555;SDS011;11956;53.184;8.578;2023-07-31T10:15:38;9.57;;;4.85;;
23555;SDS011;11956;53.184;8.578;2023-07-31T10:18:41;13.93;;;6.38;;
23555;SDS011;11956;53.184;8.578;2023-07-31T10:21:43;7.70;;;3.97;;
23555;SDS011;11956;53.184;8.578;2023-07-31T10:24:48;6.65;;;3.67;;
23555;SDS011;11956;53.184;8.578;2023-07-31T10:27:53;6.18;;;4.07;;
23555;SDS011;11956;53.184;8.578;2023-07-31T10:30:54;8.95;;;3.78;;
23555;SDS011;11956;53.184;8.578;2023-07-31T10:33:57;4.82;;;3.47;;
23555;SDS011;11956;53.184;8.578;2023-07-31T10:37:22;5.05;;;3.50;;
23555;SDS011;11956;53.184;8.578;2023-07-31T10:40:30;6.05;;;3.33;;
23555;SDS011;11956;53.184;8.578;2023-07-31T10:43:31;4.57;;;2.83;;
23555;SDS011;11956;53.184;8.578;2023-07-31T10:46:33;5.95;;;3.58;;
23555;SDS011;11956;53.184;8.578;2023-07-31T10:49:34;3.00;;;2.50;;
23555;SDS011;11956;53.184;8.578;2023-07-31T10:52:35;5.40;;;3.95;;
23555;SDS011;11956;53.184;8.578;2023-07-31T10:55:40;2.70;;;1.88;;
23555;SDS011;11956;53.184;8.578;2023-07-31T10:58:44;2.67;;;2.30;;
23555;SDS011;11956;53.184;8.578;2023-07-31T11:01:56;3.10;;;2.33;;
23555;SDS011;11956;53.184;8.578;2023-07-31T11:05:10;5.35;;;3.55;;
23555;SDS011;11956;53.184;8.578;2023-07-31T11:08:12;3.90;;;1.52;;
23555;SDS011;11956;53.184;8.578;2023-07-31T11:11:24;3.45;;;1.88;;
23555;SDS011;11956;53.184;8.578;2023-07-31T11:14:24;1.77;;;1.10;;
23555;SDS011;11956;53.184;8.578;2023-07-31T11:17:26;4.22;;;2.28;;
23555;SDS011;11956;53.184;8.578;2023-07-31T11:20:29;1.50;;;1.20;;
23555;SDS011;11956;53.184;8.578;2023-07-31T11:23:31;13.00;;;7.10;;
23555;SDS011;11956;53.184;8.578;2023-07-31T11:26:32;1.42;;;1.20;;
23555;SDS011;11956;53.184;8.578;2023-07-31T11:29:33;2.60;;;1.52;;
23555;SDS011;11956;53.184;8.578;2023-07-31T11:32:36;3.58;;;1.90;;
23555;SDS011;11956;53.184;8.578;2023-07-31T11:35:45;2.40;;;1.27;;
23555;SDS011;11956;53.184;8.578;2023-07-31T11:38:48;4.47;;;1.75;;
23555;SDS011;11956;53.184;8.578;2023-07-31T11:41:49;2.60;;;1.08;;
23555;SDS011;11956;53.184;8.578;2023-07-31T11:44:50;1.55;;;0.90;;
23555;SDS011;11956;53.184;8.578;2023-07-31T11:47:51;1.95;;;1.30;;
23555;SDS011;11956;53.184;8.578;2023-07-31T11:50:53;1.75;;;1.13;;
23555;SDS011;11956;53.184;8.578;2023-07-31T11:53:58;1.48;;;1.08;;
23555;SDS011;11956;53.184;8.578;2023-07-31T11:57:01;1.77;;;1.08;;
23555;SDS011;11956;53.184;8.578;2023-07-31T12:00:03;2.70;;;1.55;;
23555;SDS011;11956;53.184;8.578;2023-07-31T12:03:06;5.60;;;1.85;;
23555;SDS011;11956;53.184;8.578;2023-07-31T12:06:07;5.00;;;2.35;;
23555;SDS011;11956;53.184;8.578;2023-07-31T12:09:08;8.45;;;3.30;;
23555;SDS011;11956;53.184;8.578;2023-07-31T12:12:09;6.32;;;2.50;;
23555;SDS011;11956;53.184;8.578;2023-07-31T12:15:14;2.35;;;1.17;;
23555;SDS011;11956;53.184;8.578;2023-07-31T12:18:18;1.70;;;1.10;;
23555;SDS011;11956;53.184;8.578;2023-07-31T12:21:20;2.00;;;1.30;;
23555;SDS011;11956;53.184;8.578;2023-07-31T12:24:21;4.35;;;2.63;;
23555;SDS011;11956;53.184;8.578;2023-07-31T12:27:22;2.53;;;1.65;;
23555;SDS011;11956;53.184;8.578;2023-07-31T12:30:29;5.57;;;3.60;;
23555;SDS011;11956;53.184;8.578;2023-07-31T12:33:35;1.92;;;1.38;;
23555;SDS011;11956;53.184;8.578;2023-07-31T12:36:38;2.38;;;1.48;;
23555;SDS011;11956;53.184;8.578;2023-07-31T12:39:39;4.65;;;2.47;;
23555;SDS011;11956;53.184;8.578;2023-07-31T12:42:41;4.45;;;1.73;;
23555;SDS011;11956;53.184;8.578;2023-07-31T12:45:42;6.88;;;2.85;;
23555;SDS011;11956;53.184;8.578;2023-07-31T12:48:43;1.50;;;1.40;;
23555;SDS011;11956;53.184;8.578;2023-07-31T12:51:44;1.80;;;1.65;;
23555;SDS011;11956;53.184;8.578;2023-07-31T12:54:45;2.20;;;2.00;;
23555;SDS011;11956;53.184;8.578;2023-07-31T12:57:46;6.38;;;3.00;;
23555;SDS011;11956;53.184;8.578;2023-07-31T13:00:47;2.67;;;1.85;;
23555;SDS011;11956;53.184;8.578;2023-07-31T13:03:48;2.83;;;2.63;;
23555;SDS011;11956;53.184;8.578;2023-07-31T13:06:49;2.60;;;2.40;;
23555;SDS011;11956;53.184;8.578;2023-07-31T13:09:50;1.88;;;1.67;;
23555;SDS011;11956;53.184;8.578;2023-07-31T13:12:51;1.42;;;1.27;;
23555;SDS011;11956;53.184;8.578;2023-07-31T13:15:52;1.35;;;1.25;;
23555;SDS011;11956;53.184;8.578;2023-07-31T13:18:53;1.95;;;1.63;;
23555;SDS011;11956;53.184;8.578;2023-07-31T13:21:54;1.55;;;1.45;;
23555;SDS011;11956;53.184;8.578;2023-07-31T13:24:55;2.70;;;1.67;;
23555;SDS011;11956;53.184;8.578;2023-07-31T13:27:56;2.80;;;2.25;;
23555;SDS011;11956;53.184;8.578;2023-07-31T13:34:29;4.22;;;2.00;;
23555;SDS011;11956;53.184;8.578;2023-07-31T13:37:30;5.55;;;3.20;;
23555;SDS011;11956;53.184;8.578;2023-07-31T13:40:31;2.60;;;2.40;;
23555;SDS011;11956;53.184;8.578;2023-07-31T13:43:32;2.97;;;2.50;;
23555;SDS011;11956;53.184;8.578;2023-07-31T13:46:33;2.42;;;2.28;;
23555;SDS011;11956;53.184;8.578;2023-07-31T13:49:34;3.25;;;2.95;;
23555;SDS011;11956;53.184;8.578;2023-07-31T13:52:36;2.80;;;2.60;;
23555;SDS011;11956;53.184;8.578;2023-07-31T13:55:37;3.20;;;2.90;;
23555;SDS011;11956;53.184;8.578;2023-07-31T13:58:37;8.18;;;4.50;;
23555;SDS011;11956;53.184;8.578;2023-07-31T14:01:38;4.93;;;3.78;;
23555;SDS011;11956;53.184;8.578;2023-07-31T14:04:39;7.72;;;4.90;;
23555;SDS011;11956;53.184;8.578;2023-07-31T14:07:40;5.38;;;4.28;;
23555;SDS011;11956;53.184;8.578;2023-07-31T14:10:41;12.40;;;7.30;;
23555;SDS011;11956;53.184;8.578;2023-07-31T14:13:42;9.48;;;6.05;;
23555;SDS011;11956;53.184;8.578;2023-07-31T14:16:44;12.65;;;6.78;;
23555;SDS011;11956;53.184;8.578;2023-07-31T14:19:45;7.35;;;6.50;;
23555;SDS011;11956;53.184;8.578;2023-07-31T14:22:46;7.88;;;6.82;;
23555;SDS011;11956;53.184;8.578;2023-07-31T14:25:47;12.90;;;8.90;;
23555;SDS011;11956;53.184;8.578;2023-07-31T14:28:48;10.85;;;9.43;;
23555;SDS011;11956;53.184;8.578;2023-07-31T14:31:49;11.52;;;9.75;;
23555;SDS011;11956;53.184;8.578;2023-07-31T14:34:51;16.02;;;10.73;;
23555;SDS011;11956;53.184;8.578;2023-07-31T14:37:52;15.23;;;11.82;;
23555;SDS011;11956;53.184;8.578;2023-07-31T14:40:53;21.20;;;13.20;;
23555;SDS011;11956;53.184;8.578;2023-07-31T14:43:54;18.00;;;12.65;;
23555;SDS011;11956;53.184;8.578;2023-07-31T14:46:55;17.17;;;11.75;;
23555;SDS011;11956;53.184;8.578;2023-07-31T14:49:56;13.00;;;9.20;;
23555;SDS011;11956;53.184;8.578;2023-07-31T14:52:57;10.13;;;8.30;;
23555;SDS011;11956;53.184;8.578;2023-07-31T14:55:58;11.75;;;9.80;;
23555;SDS011;11956;53.184;8.578;2023-07-31T14:58:59;13.63;;;11.43;;
23555;SDS011;11956;53.184;8.578;2023-07-31T15:02:00;11.80;;;10.38;;
23555;SDS011;11956;53.184;8.578;2023-07-31T15:05:01;10.65;;;9.32;;
23555;SDS011;11956;53.184;8.578;2023-07-31T15:08:02;9.90;;;8.05;;
23555;SDS011;11956;53.184;8.578;2023-07-31T15:11:05;9.32;;;7.93;;
23555;SDS011;11956;53.184;8.578;2023-07-31T15:14:06;11.27;;;8.90;;
23555;SDS011;11956;53.184;8.578;2023-07-31T15:17:07;10.10;;;8.00;;
23555;SDS011;11956;53.184;8.578;2023-07-31T15:20:09;7.93;;;7.13;;
23555;SDS011;11956;53.184;8.578;2023-07-31T15:23:11;7.88;;;6.63;;
23555;SDS011;11956;53.184;8.578;2023-07-31T15:26:12;9.05;;;6.80;;
23555;SDS011;11956;53.184;8.578;2023-07-31T15:29:13;8.50;;;7.18;;
23555;SDS011;11956;53.184;8.578;2023-07-31T15:32:19;8.88;;;6.70;;
23555;SDS011;11956;53.184;8.578;2023-07-31T15:35:21;8.03;;;6.60;;
23555;SDS011;11956;53.184;8.578;2023-07-31T15:38:22;9.75;;;6.95;;
23555;SDS011;11956;53.184;8.578;2023-07-31T15:41:24;6.32;;;5.35;;
23555;SDS011;11956;53.184;8.578;2023-07-31T15:44:25;8.50;;;5.55;;
23555;SDS011;11956;53.184;8.578;2023-07-31T15:47:26;7.78;;;5.63;;
23555;SDS011;11956;53.184;8.578;2023-07-31T15:50:27;9.65;;;6.70;;
23555;SDS011;11956;53.184;8.578;2023-07-31T15:53:28;7.22;;;6.13;;
23555;SDS011;11956;53.184;8.578;2023-07-31T15:56:30;11.65;;;7.43;;
23555;SDS011;11956;53.184;8.578;2023-07-31T15:59:31;9.52;;;6.18;;
23555;SDS011;11956;53.184;8.578;2023-07-31T16:02:32;9.43;;;6.13;;
23555;SDS011;11956;53.184;8.578;2023-07-31T16:05:35;10.63;;;7.55;;
23555;SDS011;11956;53.184;8.578;2023-07-31T16:08:36;7.55;;;6.35;;
23555;SDS011;11956;53.184;8.578;2023-07-31T16:11:41;6.45;;;5.85;;
23555;SDS011;11956;53.184;8.578;2023-07-31T16:14:42;8.65;;;7.35;;
23555;SDS011;11956;53.184;8.578;2023-07-31T16:17:43;8.85;;;7.78;;
23555;SDS011;11956;53.184;8.578;2023-07-31T16:20:45;9.55;;;8.07;;
23555;SDS011;11956;53.184;8.578;2023-07-31T16:23:46;11.05;;;7.30;;
23555;SDS011;11956;53.184;8.578;2023-07-31T16:26:47;10.45;;;9.35;;
23555;SDS011;11956;53.184;8.578;2023-07-31T16:29:48;11.75;;;9.75;;
23555;SDS011;11956;53.184;8.578;2023-07-31T16:32:49;10.75;;;9.10;;
23555;SDS011;11956;53.184;8.578;2023-07-31T16:35:50;9.32;;;7.90;;
23555;SDS011;11956;53.184;8.578;2023-07-31T16:38:51;8.95;;;8.05;;
23555;SDS011;11956;53.184;8.578;2023-07-31T16:41:52;9.85;;;7.18;;
23555;SDS011;11956;53.184;8.578;2023-07-31T16:44:53;10.88;;;7.43;;
23555;SDS011;11956;53.184;8.578;2023-07-31T16:47:54;7.75;;;5.90;;
23555;SDS011;11956;53.184;8.578;2023-07-31T16:50:55;10.45;;;7.47;;
23555;SDS011;11956;53.184;8.578;2023-07-31T16:53:56;7.68;;;6.53;;
23555;SDS011;11956;53.184;8.578;2023-07-31T16:56:57;6.88;;;6.15;;
23555;SDS011;11956;53.184;8.578;2023-07-31T16:59:59;6.82;;;6.13;;
23555;SDS011;11956;53.184;8.578;2023-07-31T17:03:00;7.40;;;6.70;;
23555;SDS011;11956;53.184;8.578;2023-07-31T17:06:03;7.85;;;7.05;;
23555;SDS011;11956;53.184;8.578;2023-07-31T17:09:04;9.05;;;6.70;;
23555;SDS011;11956;53.184;8.578;2023-07-31T17:12:05;11.57;;;6.22;;
23555;SDS011;11956;53.184;8.578;2023-07-31T17:15:07;6.97;;;6.28;;
23555;SDS011;11956;53.184;8.578;2023-07-31T17:18:08;8.52;;;7.00;;
23555;SDS011;11956;53.184;8.578;2023-07-31T17:21:09;9.98;;;7.80;;
23555;SDS011;11956;53.184;8.578;2023-07-31T17:24:10;8.75;;;6.95;;
23555;SDS011;11956;53.184;8.578;2023-07-31T17:27:11;8.55;;;6.50;;
23555;SDS011;11956;53.184;8.578;2023-07-31T17:30:12;8.30;;;6.82;;
23555;SDS011;11956;53.184;8.578;2023-07-31T17:33:14;10.75;;;8.32;;
23555;SDS011;11956;53.184;8.578;2023-07-31T17:36:15;6.95;;;6.25;;
23555;SDS011;11956;53.184;8.578;2023-07-31T17:39:16;8.55;;;7.45;;
23555;SDS011;11956;53.184;8.578;2023-07-31T17:42:17;10.23;;;7.40;;
23555;SDS011;11956;53.184;8.578;2023-07-31T17:45:17;9.60;;;8.60;;
23555;SDS011;11956;53.184;8.578;2023-07-31T17:48:18;9.10;;;7.82;;
23555;SDS011;11956;53.184;8.578;2023-07-31T17:51:19;10.20;;;9.05;;
23555;SDS011;11956;53.184;8.578;2023-07-31T17:54:20;9.50;;;8.15;;
23555;SDS011;11956;53.184;8.578;2023-07-31T17:57:22;12.20;;;10.60;;
23555;SDS011;11956;53.184;8.578;2023-07-31T18:00:23;12.18;;;9.90;;
23555;SDS011;11956;53.184;8.578;2023-07-31T18:03:24;13.32;;;9.07;;
23555;SDS011;11956;53.184;8.578;2023-07-31T18:06:25;13.65;;;10.57;;
23555;SDS011;11956;53.184;8.578;2023-07-31T18:09:27;12.60;;;9.10;;
23555;SDS011;11956;53.184;8.578;2023-07-31T18:12:28;12.55;;;10.20;;
23555;SDS011;11956;53.184;8.578;2023-07-31T18:15:29;11.25;;;9.38;;
23555;SDS011;11956;53.184;8.578;2023-07-31T18:18:30;15.57;;;10.77;;
23555;SDS011;11956;53.184;8.578;2023-07-31T18:21:31;10.82;;;9.20;;
23555;SDS011;11956;53.184;8.578;2023-07-31T18:24:33;9.82;;;8.82;;
23555;SDS011;11956;53.184;8.578;2023-07-31T18:27:34;11.98;;;10.55;;
23555;SDS011;11956;53.184;8.578;2023-07-31T18:30:35;10.88;;;8.40;;